Time;durP1;ratioP1;P1;durP2;ratioP2;P2;SDS_P1;SDS_P2;PMS_P1;PMS_P2;Temp;Humidity;BMP_temperature;BMP_pressure;BME280_temperature;BME280_humidity;BME280_pressure;Samples;Min_cycle;Max_cycle;Signal;HPM_P1;HPM_P2
2024/01/21 00:02:21;;;;;;;11.43;2.45;;;5.90;97.10;;;;;;5060304;28;20073;-73
2024/01/21 00:04:48;;;;;;;7.65;3.28;;;5.90;97.80;;;;;;5043385;28;20024;-73
2024/01/21 00:07:14;;;;;;;10.93;2.85;;;6.00;97.60;;;;;;5062375;28;20040;-73
2024/01/21 00:09:39;;;;;;;19.85;2.22;;;5.90;98.10;;;;;;5048963;28;20756;-73
2024/01/21 00:12:05;;;;;;;7.80;1.95;;;5.90;98.10;;;;;;5061054;28;20043;-72
2024/01/21 00:14:31;;;;;;;4.55;2.05;;;5.90;97.60;;;;;;5048507;28;20179;-71
2024/01/21 00:16:56;;;;;;;5.53;2.33;;;6.00;97.60;;;;;;5046557;28;20036;-72
2024/01/21 00:19:22;;;;;;;3.80;1.60;;;6.00;97.70;;;;;;5069787;28;20032;-71
2024/01/21 00:21:48;;;;;;;5.05;1.70;;;6.00;98.10;;;;;;5055062;28;20024;-71
2024/01/21 00:24:13;;;;;;;7.40;1.33;;;6.00;95.90;;;;;;5048202;28;20527;-71
2024/01/21 00:26:39;;;;;;;9.68;2.85;;;6.00;96.40;;;;;;5050207;28;20036;-71
2024/01/21 00:29:05;;;;;;;1.80;1.20;;;6.00;96.30;;;;;;5063760;28;20571;-71
2024/01/21 00:31:30;;;;;;;3.78;2.28;;;6.00;96.50;;;;;;5047350;28;20040;-72
2024/01/21 00:33:56;;;;;;;5.57;2.22;;;6.00;96.60;;;;;;5066327;28;20028;-72
2024/01/21 00:36:21;;;;;;;3.85;1.92;;;6.00;95.40;;;;;;5046915;28;20028;-71
2024/01/21 00:38:47;;;;;;;5.70;2.03;;;6.00;95.60;;;;;;5063638;28;20808;-72
2024/01/21 00:41:57;;;;;;;7.43;1.83;;;6.00;96.40;;;;;;5035044;28;20071;-72
2024/01/21 00:44:22;;;;;;;;;;;6.00;97.30;;;;;;5051067;28;20062;-73
2024/01/21 00:46:50;;;;;;;8.15;2.15;;;6.00;96.30;;;;;;5032205;28;19955;-72
2024/01/21 00:49:16;;;;;;;3.95;2.72;;;6.00;95.90;;;;;;5065073;28;20115;-71
2024/01/21 00:51:41;;;;;;;6.22;2.17;;;6.10;96.10;;;;;;5048077;28;20024;-72
2024/01/21 00:54:07;;;;;;;2.42;2.00;;;6.00;96.40;;;;;;5065655;28;20037;-72
2024/01/21 00:56:33;;;;;;;12.02;3.42;;;6.00;96.90;;;;;;5039684;28;20039;-73
2024/01/21 00:58:59;;;;;;;10.75;2.95;;;6.10;97.70;;;;;;5060949;28;20119;-72
2024/01/21 01:01:25;;;;;;;3.08;1.77;;;6.00;97.20;;;;;;5038151;28;20028;-73
2024/01/21 01:03:50;;;;;;;15.52;2.55;;;6.00;96.70;;;;;;5056147;28;20085;-72
2024/01/21 01:06:17;;;;;;;8.80;1.75;;;6.00;97.20;;;;;;5053651;28;20028;-73
2024/01/21 01:08:42;;;;;;;14.05;3.05;;;6.00;97.90;;;;;;5059105;28;20483;-71
2024/01/21 01:11:08;;;;;;;11.82;2.33;;;5.90;98.30;;;;;;5056495;28;20031;-72
2024/01/21 01:13:33;;;;;;;8.02;2.33;;;5.90;98.20;;;;;;5054138;28;20032;-72
2024/01/21 01:16:00;;;;;;;4.72;2.30;;;5.90;98.90;;;;;;5059189;28;20734;-72
2024/01/21 01:19:18;;;;;;;2.88;2.33;;;5.90;98.40;;;;;;5030843;28;20029;-73
2024/01/21 01:21:43;;;;;;;5.77;2.53;;;5.90;99.10;;;;;;5058119;28;20085;-71
2024/01/21 01:24:10;;;;;;;3.35;2.08;;;5.90;99.40;;;;;;5050357;28;20036;-73
2024/01/21 01:26:35;;;;;;;10.02;3.13;;;5.90;99.50;;;;;;5062648;28;20071;-73
2024/01/21 01:29:01;;;;;;;6.35;2.30;;;5.80;99.70;;;;;;5049189;28;20145;-72
2024/01/21 01:31:26;;;;;;;12.27;3.45;;;5.80;99.90;;;;;;5057738;28;21323;-72
2024/01/21 01:33:52;;;;;;;6.22;2.30;;;5.90;99.90;;;;;;5049054;28;20032;-72
2024/01/21 01:36:33;;;;;;;10.95;3.85;;;5.90;99.90;;;;;;5058662;28;20032;-73
2024/01/21 01:38:59;;;;;;;3.20;2.60;;;5.80;99.90;;;;;;5044287;28;20123;-71
2024/01/21 01:41:24;;;;;;;9.23;3.58;;;5.80;99.90;;;;;;5062746;28;20451;-72
2024/01/21 01:43:50;;;;;;;6.95;3.55;;;5.70;99.90;;;;;;5048295;28;20056;-72
2024/01/21 01:46:16;;;;;;;7.05;3.22;;;5.70;99.90;;;;;;5065279;28;20048;-72
2024/01/21 01:48:42;;;;;;;6.60;3.03;;;5.60;99.90;;;;;;5041490;28;20032;-72
2024/01/21 01:51:08;;;;;;;6.70;2.33;;;5.50;99.90;;;;;;5061513;28;20952;-73
2024/01/21 01:53:35;;;;;;;10.07;3.80;;;5.50;99.90;;;;;;5040468;28;20679;-72
2024/01/21 01:59:24;;;;;;;10.18;3.58;;;5.40;99.90;;;;;;5046341;28;20050;-72
2024/01/21 02:01:50;;;;;;;4.45;2.13;;;5.40;99.90;;;;;;5063998;28;20037;-72
2024/01/21 02:04:16;;;;;;;6.53;2.17;;;5.50;99.90;;;;;;5042380;28;20526;-71
2024/01/21 02:06:41;;;;;;;8.85;3.65;;;5.50;99.90;;;;;;5067097;28;20037;-72
2024/01/21 02:09:08;;;;;;;16.05;4.45;;;5.50;99.90;;;;;;5047757;28;20032;-72
2024/01/21 02:11:34;;;;;;;8.85;3.50;;;5.50;99.90;;;;;;5054822;28;20027;-72
2024/01/21 02:14:00;;;;;;;7.88;3.67;;;5.50;99.90;;;;;;5052367;28;20396;-73
2024/01/21 02:16:25;;;;;;;9.55;4.28;;;5.40;99.90;;;;;;5060935;28;20664;-71
2024/01/21 02:18:51;;;;;;;21.70;3.72;;;5.50;99.90;;;;;;5045712;28;20041;-72
2024/01/21 02:21:17;;;;;;;5.82;3.08;;;5.40;99.90;;;;;;5056440;28;20126;-72
2024/01/21 02:23:43;;;;;;;8.10;4.22;;;5.50;99.90;;;;;;5060763;28;20024;-73
2024/01/21 02:26:09;;;;;;;8.10;3.03;;;5.40;99.90;;;;;;5048654;28;20032;-72
2024/01/21 02:28:34;;;;;;;7.65;4.50;;;5.40;99.90;;;;;;5062194;28;20058;-72
2024/01/21 02:31:00;;;;;;;10.50;3.10;;;5.40;99.90;;;;;;5045920;28;20382;-71
2024/01/21 02:33:26;;;;;;;5.30;3.05;;;5.50;99.90;;;;;;5062250;28;20157;-73
2024/01/21 02:35:52;;;;;;;7.45;2.83;;;5.50;99.90;;;;;;5048047;28;20483;-72
2024/01/21 02:38:18;;;;;;;15.00;4.05;;;5.50;99.90;;;;;;5053777;28;20594;-72
2024/01/21 02:40:44;;;;;;;5.45;3.17;;;5.60;99.90;;;;;;5044311;28;20051;-72
2024/01/21 02:43:09;;;;;;;7.70;3.92;;;5.60;99.90;;;;;;5062534;28;20027;-72
2024/01/21 02:45:35;;;;;;;4.00;3.22;;;5.70;99.90;;;;;;5047409;28;21049;-71
2024/01/21 02:48:01;;;;;;;5.03;2.22;;;5.70;99.90;;;;;;5059767;28;20403;-72
2024/01/21 02:50:26;;;;;;;5.97;3.35;;;5.80;99.90;;;;;;5044638;28;20037;-71
2024/01/21 02:52:52;;;;;;;5.43;2.40;;;5.80;99.90;;;;;;5060373;28;20033;-72
2024/01/21 02:55:18;;;;;;;15.27;3.88;;;5.90;99.90;;;;;;5049745;28;20032;-72
2024/01/21 02:57:43;;;;;;;14.15;3.72;;;5.90;99.90;;;;;;5059430;28;20032;-72
2024/01/21 03:00:09;;;;;;;24.73;3.47;;;5.90;99.90;;;;;;5049259;28;20035;-71
2024/01/21 03:02:36;;;;;;;5.47;2.35;;;5.90;99.90;;;;;;5059770;28;21279;-71
2024/01/21 03:05:01;;;;;;;19.98;2.72;;;5.80;99.90;;;;;;5056607;28;20028;-72
2024/01/21 03:07:27;;;;;;;5.13;2.90;;;5.90;99.90;;;;;;5050901;28;21471;-71
2024/01/21 03:13:08;;;;;;;10.30;2.92;;;5.80;99.90;;;;;;5057943;28;20055;-73
2024/01/21 03:18:56;;;;;;;19.88;3.88;;;6.00;99.90;;;;;;5051809;28;20660;-74
2024/01/21 03:21:22;;;;;;;12.43;2.90;;;6.10;99.90;;;;;;5058012;28;20037;-74
2024/01/21 03:23:48;;;;;;;16.15;3.08;;;6.20;99.90;;;;;;5046120;28;20024;-75
2024/01/21 03:26:13;;;;;;;13.00;2.45;;;6.20;99.90;;;;;;5065759;28;20677;-74
2024/01/21 03:28:39;;;;;;;8.52;2.25;;;6.30;99.90;;;;;;5063863;28;20040;-74
2024/01/21 03:31:04;;;;;;;8.80;2.40;;;6.30;99.90;;;;;;5048981;28;20036;-75
2024/01/21 03:33:30;;;;;;;5.88;2.78;;;6.30;99.90;;;;;;5052979;28;20033;-74
2024/01/21 03:35:56;;;;;;;15.05;2.50;;;6.20;99.90;;;;;;5029545;28;20525;-74
2024/01/21 03:38:22;;;;;;;7.63;2.30;;;6.20;99.90;;;;;;5059819;28;20093;-75
2024/01/21 03:40:47;;;;;;;13.82;3.25;;;6.30;99.90;;;;;;5053634;28;21458;-74
2024/01/21 03:43:13;;;;;;;12.70;3.83;;;6.30;99.90;;;;;;5065451;28;20041;-73
2024/01/21 03:45:38;;;;;;;8.02;4.38;;;6.30;99.90;;;;;;5041946;28;20474;-74
2024/01/21 03:48:05;;;;;;;13.00;3.17;;;6.30;99.90;;;;;;5069265;28;20376;-74
2024/01/21 03:51:26;;;;;;;11.13;3.88;;;6.30;99.90;;;;;;5047399;28;20032;-73
2024/01/21 03:53:52;;;;;;;10.10;4.20;;;6.30;99.90;;;;;;5062545;28;20032;-72
2024/01/21 03:56:18;;;;;;;5.38;3.22;;;6.40;99.90;;;;;;5045396;28;20120;-73
2024/01/21 03:58:44;;;;;;;20.48;3.92;;;6.40;99.90;;;;;;5069090;28;20098;-73
2024/01/21 04:01:10;;;;;;;8.27;2.10;;;6.40;99.90;;;;;;5055340;28;20032;-72
2024/01/21 04:03:36;;;;;;;4.07;3.05;;;6.40;99.90;;;;;;5063461;28;20032;-71
2024/01/21 04:06:01;;;;;;;5.57;3.17;;;6.50;99.90;;;;;;5050331;28;20063;-72
2024/01/21 04:08:27;;;;;;;11.13;4.07;;;6.50;99.90;;;;;;5064962;28;20032;-72
2024/01/21 04:10:54;;;;;;;8.10;3.95;;;6.50;99.90;;;;;;5045320;28;20081;-71
2024/01/21 04:13:20;;;;;;;17.77;2.20;;;6.60;99.90;;;;;;5061116;28;20715;-73
2024/01/21 04:15:46;;;;;;;12.05;3.05;;;6.60;99.90;;;;;;5051188;28;20097;-72
2024/01/21 04:18:12;;;;;;;13.27;3.30;;;6.60;99.90;;;;;;5063934;28;20040;-72
2024/01/21 04:20:38;;;;;;;7.93;3.08;;;6.60;99.90;;;;;;5048758;28;20119;-72
2024/01/21 04:23:03;;;;;;;22.30;3.47;;;6.70;99.90;;;;;;5049270;28;20036;-72
2024/01/21 04:25:29;;;;;;;13.25;4.88;;;6.70;99.90;;;;;;5058147;28;20013;-73
2024/01/21 04:27:55;;;;;;;7.45;3.17;;;6.80;99.90;;;;;;5053079;28;20037;-73
2024/01/21 04:30:20;;;;;;;6.72;2.78;;;6.80;99.90;;;;;;5061163;28;20040;-73
2024/01/21 04:32:46;;;;;;;8.02;2.33;;;6.80;99.90;;;;;;5055081;28;20036;-72
2024/01/21 04:35:11;;;;;;;4.65;2.28;;;6.90;99.90;;;;;;5066000;28;20028;-72
2024/01/21 04:37:37;;;;;;;6.78;2.35;;;7.00;99.90;;;;;;5043019;28;20032;-72
2024/01/21 04:40:04;;;;;;;14.52;2.97;;;7.00;99.90;;;;;;5061283;28;20065;-72
2024/01/21 04:42:29;;;;;;;6.13;2.88;;;7.00;99.90;;;;;;5032064;28;20036;-72
2024/01/21 04:44:55;;;;;;;12.32;1.95;;;7.10;99.90;;;;;;5060408;28;20052;-74
2024/01/21 04:47:21;;;;;;;18.05;3.88;;;7.10;99.90;;;;;;5050798;28;20052;-72
2024/01/21 04:49:46;;;;;;;10.00;3.72;;;7.10;99.90;;;;;;5065421;28;20082;-71
2024/01/21 04:52:12;;;;;;;12.38;1.92;;;7.20;99.90;;;;;;5047773;28;20111;-72
2024/01/21 04:54:38;;;;;;;11.02;2.28;;;7.20;99.90;;;;;;5065717;28;20078;-72
2024/01/21 04:57:04;;;;;;;12.32;2.97;;;7.30;99.90;;;;;;5047341;28;21567;-73
2024/01/21 04:59:29;;;;;;;3.72;1.95;;;7.40;99.90;;;;;;5070114;28;20043;-72
2024/01/21 05:01:55;;;;;;;6.43;2.60;;;7.50;99.90;;;;;;5055500;28;20862;-73
2024/01/21 05:04:21;;;;;;;13.10;2.20;;;7.50;99.90;;;;;;5056378;28;20073;-73
2024/01/21 05:06:46;;;;;;;7.07;2.20;;;7.50;99.90;;;;;;5061159;28;20626;-71
2024/01/21 05:09:12;;;;;;;8.77;2.40;;;7.50;99.90;;;;;;5048504;28;20050;-72
2024/01/21 05:11:38;;;;;;;15.93;2.78;;;7.60;99.90;;;;;;5061074;28;20033;-73
2024/01/21 05:14:03;;;;;;;9.43;2.72;;;7.60;99.90;;;;;;5052841;28;20040;-72
2024/01/21 05:16:29;;;;;;;5.63;2.00;;;7.60;99.90;;;;;;5061368;28;20071;-71
2024/01/21 05:18:56;;;;;;;23.60;3.67;;;7.60;99.90;;;;;;5048576;28;20060;-72
2024/01/21 05:21:22;;;;;;;8.40;2.83;;;7.50;99.90;;;;;;5065181;28;21092;-74
2024/01/21 05:23:50;;;;;;;16.65;3.15;;;7.50;99.90;;;;;;5042140;28;20037;-71
2024/01/21 05:26:16;;;;;;;12.82;2.50;;;7.50;99.90;;;;;;5064705;28;20387;-72
2024/01/21 05:28:41;;;;;;;10.80;2.05;;;7.50;99.90;;;;;;5051621;28;20032;-73
2024/01/21 05:31:07;;;;;;;11.80;2.65;;;7.50;99.90;;;;;;5051939;28;20055;-73
2024/01/21 05:33:34;;;;;;;12.10;2.67;;;7.50;99.90;;;;;;5052779;28;20123;-71
2024/01/21 05:35:59;;;;;;;8.10;2.13;;;7.60;99.90;;;;;;5067438;28;20500;-71
2024/01/21 05:38:25;;;;;;;12.93;4.20;;;7.60;99.90;;;;;;5045843;28;20036;-72
2024/01/21 05:40:51;;;;;;;6.32;2.58;;;7.60;99.90;;;;;;5065459;28;20028;-71
2024/01/21 05:43:16;;;;;;;17.17;3.92;;;7.60;99.90;;;;;;5045204;28;20031;-72
2024/01/21 05:45:42;;;;;;;9.43;3.97;;;7.70;99.90;;;;;;5043900;28;20048;-72
2024/01/21 05:48:08;;;;;;;16.70;3.58;;;7.70;99.90;;;;;;5065592;28;20035;-72
2024/01/21 05:50:33;;;;;;;16.90;2.58;;;7.70;99.90;;;;;;5049094;28;20067;-71
2024/01/21 05:52:59;;;;;;;10.38;2.63;;;7.70;99.90;;;;;;5062463;28;20119;-72
2024/01/21 05:55:24;;;;;;;19.92;3.42;;;7.80;99.90;;;;;;5049934;28;20043;-72
2024/01/21 05:57:50;;;;;;;14.88;3.10;;;7.80;99.90;;;;;;5058762;28;20037;-72
2024/01/21 06:00:16;;;;;;;15.55;3.25;;;7.90;99.90;;;;;;5034726;28;20032;-73
2024/01/21 06:02:44;;;;;;;11.63;2.72;;;7.90;99.90;;;;;;5052606;28;20111;-71
2024/01/21 06:05:10;;;;;;;9.75;2.35;;;7.90;99.90;;;;;;5042888;28;20671;-72
2024/01/21 06:07:36;;;;;;;14.50;3.13;;;8.00;99.90;;;;;;5061982;28;20122;-72
2024/01/21 06:10:02;;;;;;;19.40;3.60;;;8.00;99.90;;;;;;5048241;28;20027;-72
2024/01/21 06:12:27;;;;;;;9.15;3.47;;;8.00;99.90;;;;;;5060803;28;20131;-72
2024/01/21 06:14:53;;;;;;;17.60;1.80;;;8.00;99.90;;;;;;5051763;28;20032;-73
2024/01/21 06:17:18;;;;;;;15.13;3.47;;;8.00;99.90;;;;;;5052365;28;20044;-72
2024/01/21 06:19:44;;;;;;;10.82;3.33;;;8.10;99.90;;;;;;5046286;28;20112;-73
2024/01/21 06:22:10;;;;;;;11.15;2.58;;;8.10;99.90;;;;;;5054984;28;20030;-73
2024/01/21 06:24:36;;;;;;;11.52;2.17;;;8.10;99.90;;;;;;5041287;28;20074;-73
2024/01/21 06:27:03;;;;;;;8.38;2.10;;;8.20;99.90;;;;;;5055859;28;20435;-71
2024/01/21 06:29:28;;;;;;;8.23;2.13;;;8.20;99.90;;;;;;5061481;28;20039;-72
2024/01/21 06:31:55;;;;;;;17.73;3.63;;;8.20;99.90;;;;;;5047197;28;20075;-71
2024/01/21 06:34:20;;;;;;;4.97;2.20;;;8.20;99.90;;;;;;5067308;28;20036;-72
2024/01/21 06:36:46;;;;;;;9.07;2.58;;;8.30;99.90;;;;;;5044025;28;20047;-72
2024/01/21 06:39:12;;;;;;;8.75;2.50;;;8.30;99.90;;;;;;5058883;28;20052;-72
2024/01/21 06:41:38;;;;;;;12.57;2.90;;;8.30;99.90;;;;;;5051225;28;20053;-72
2024/01/21 06:44:03;;;;;;;9.68;2.53;;;8.40;99.90;;;;;;5051542;28;20472;-72
2024/01/21 06:46:29;;;;;;;16.60;2.88;;;8.40;99.90;;;;;;5044222;28;20045;-72
2024/01/21 06:48:55;;;;;;;10.82;2.78;;;8.40;99.90;;;;;;5053086;28;20535;-72
2024/01/21 06:51:31;;;;;;;7.50;2.00;;;8.40;99.90;;;;;;5035923;28;20712;-72
2024/01/21 06:54:03;;;;;;;22.88;2.25;;;8.40;99.90;;;;;;5058919;28;20120;-72
2024/01/21 06:56:28;;;;;;;6.88;2.00;;;8.40;99.90;;;;;;5050281;28;20031;-71
2024/01/21 06:58:54;;;;;;;30.63;3.58;;;8.30;99.90;;;;;;5070086;28;20542;-72
2024/01/21 07:01:20;;;;;;;11.20;2.53;;;8.30;99.90;;;;;;5053350;28;20066;-71
2024/01/21 07:03:46;;;;;;;20.40;4.00;;;8.30;99.90;;;;;;5065241;28;20020;-72
2024/01/21 07:06:12;;;;;;;16.67;2.22;;;8.30;99.90;;;;;;5045074;28;20101;-72
2024/01/21 07:08:38;;;;;;;6.03;2.47;;;8.40;99.90;;;;;;5064265;28;20399;-71
2024/01/21 07:11:08;;;;;;;6.15;2.25;;;8.40;99.90;;;;;;5059548;28;20032;-72
2024/01/21 07:13:33;;;;;;;9.43;2.63;;;8.40;99.90;;;;;;5066198;28;20032;-73
2024/01/21 07:15:59;;;;;;;11.80;2.10;;;8.40;99.90;;;;;;5050820;28;20043;-73
2024/01/21 07:18:25;;;;;;;24.77;2.53;;;8.40;99.90;;;;;;5040209;28;20090;-72
2024/01/21 07:20:51;;;;;;;9.98;1.90;;;8.40;99.90;;;;;;5068100;28;20028;-73
2024/01/21 07:23:16;;;;;;;15.88;1.65;;;8.40;99.90;;;;;;5050130;28;20517;-73
2024/01/21 07:25:43;;;;;;;2.47;1.38;;;8.40;99.90;;;;;;5053996;28;20036;-71
2024/01/21 07:28:09;;;;;;;19.35;3.50;;;8.50;99.90;;;;;;5055224;28;20028;-73
2024/01/21 07:30:34;;;;;;;7.35;2.47;;;8.50;99.90;;;;;;5064813;28;20814;-72
2024/01/21 07:33:00;;;;;;;25.25;4.65;;;8.50;99.90;;;;;;5055037;28;20103;-71
2024/01/21 07:35:26;;;;;;;16.50;3.03;;;8.60;99.90;;;;;;5066127;28;20060;-73
2024/01/21 07:37:51;;;;;;;8.63;2.25;;;8.50;99.90;;;;;;5045371;28;20122;-72
2024/01/21 07:40:17;;;;;;;17.30;2.35;;;8.60;99.90;;;;;;5065084;28;20064;-72
2024/01/21 07:42:42;;;;;;;13.70;3.25;;;8.60;99.90;;;;;;5052388;28;20241;-72
2024/01/21 07:45:08;;;;;;;20.48;2.65;;;8.60;99.90;;;;;;5061102;28;20040;-71
2024/01/21 07:47:34;;;;;;;12.27;3.40;;;8.60;99.90;;;;;;5052736;28;20040;-72
2024/01/21 07:50:00;;;;;;;15.68;2.25;;;8.60;99.90;;;;;;5063220;28;20035;-73
2024/01/21 07:52:25;;;;;;;20.17;4.07;;;8.60;99.90;;;;;;5056171;28;20028;-72
2024/01/21 07:54:51;;;;;;;18.38;4.43;;;8.60;99.90;;;;;;5057151;28;20893;-72
2024/01/21 07:57:17;;;;;;;14.85;1.65;;;8.60;99.90;;;;;;5064781;28;20039;-72
2024/01/21 07:59:42;;;;;;;12.07;2.53;;;8.60;99.90;;;;;;5048889;28;20035;-72
2024/01/21 08:02:08;;;;;;;17.35;1.90;;;8.60;99.90;;;;;;5069917;28;20032;-73
2024/01/21 08:04:35;;;;;;;9.70;2.10;;;8.70;99.90;;;;;;5050221;28;20111;-72
2024/01/21 08:07:00;;;;;;;11.30;2.50;;;8.70;99.90;;;;;;5066006;28;20039;-72
2024/01/21 08:09:27;;;;;;;15.40;2.28;;;8.70;99.90;;;;;;5047926;28;20028;-72
2024/01/21 08:11:53;;;;;;;5.78;1.75;;;8.70;99.90;;;;;;5062410;28;20268;-73
2024/01/21 08:14:19;;;;;;;13.82;1.60;;;8.70;99.90;;;;;;5049080;28;20679;-72
2024/01/21 08:16:44;;;;;;;10.13;2.95;;;8.80;99.90;;;;;;5063004;28;20548;-72
2024/01/21 08:19:10;;;;;;;28.50;3.35;;;8.80;99.90;;;;;;5046261;28;20086;-73
2024/01/21 08:21:36;;;;;;;13.63;2.28;;;8.80;99.90;;;;;;5066901;28;20033;-72
2024/01/21 08:24:02;;;;;;;13.38;2.92;;;8.90;99.90;;;;;;5048333;28;20040;-72
2024/01/21 08:26:27;;;;;;;7.93;2.67;;;8.90;99.90;;;;;;5050990;28;20454;-72
2024/01/21 08:28:53;;;;;;;24.60;2.85;;;8.90;99.90;;;;;;5046392;28;20037;-73
2024/01/21 08:31:19;;;;;;;3.40;2.00;;;8.80;99.90;;;;;;5058737;28;20051;-72
2024/01/21 08:33:44;;;;;;;14.65;2.50;;;8.80;99.90;;;;;;5057242;28;20032;-72
2024/01/21 08:36:10;;;;;;;16.75;3.10;;;8.90;99.90;;;;;;5039552;28;20040;-73
2024/01/21 08:38:36;;;;;;;18.83;3.45;;;8.90;99.90;;;;;;5054455;28;20114;-73
2024/01/21 08:41:02;;;;;;;8.00;2.15;;;8.80;99.90;;;;;;5052051;28;20028;-72
2024/01/21 08:43:28;;;;;;;11.57;2.60;;;8.80;99.90;;;;;;5068249;28;20050;-73
2024/01/21 08:45:53;;;;;;;16.10;2.78;;;8.80;99.90;;;;;;5045780;28;20772;-72
2024/01/21 08:48:19;;;;;;;27.90;3.47;;;8.80;99.90;;;;;;5062396;28;20531;-72
2024/01/21 08:50:44;;;;;;;10.00;1.65;;;8.90;99.90;;;;;;5048787;28;20092;-72
2024/01/21 08:53:10;;;;;;;14.32;2.65;;;9.10;99.90;;;;;;5053123;28;20032;-72
2024/01/21 08:55:36;;;;;;;5.97;2.38;;;9.00;99.90;;;;;;5043564;28;20055;-72
2024/01/21 08:58:02;;;;;;;19.60;2.88;;;9.00;99.90;;;;;;5062620;28;20438;-72
2024/01/21 09:00:28;;;;;;;10.20;2.78;;;9.00;99.90;;;;;;5053503;28;20475;-73
2024/01/21 09:02:53;;;;;;;29.38;2.88;;;9.00;99.90;;;;;;5065966;28;20423;-74
2024/01/21 09:05:19;;;;;;;13.50;2.35;;;9.00;99.90;;;;;;5043102;28;20032;-72
2024/01/21 09:07:45;;;;;;;10.82;3.35;;;8.90;99.90;;;;;;5053022;28;20040;-72
2024/01/21 09:10:10;;;;;;;16.92;2.58;;;9.00;99.90;;;;;;5050549;28;20392;-71
2024/01/21 09:12:36;;;;;;;22.55;1.60;;;9.00;99.90;;;;;;5062923;28;20140;-73
2024/01/21 09:15:02;;;;;;;21.02;3.55;;;9.10;99.90;;;;;;5063338;28;20499;-73
2024/01/21 09:17:28;;;;;;;14.05;2.90;;;9.10;99.90;;;;;;5050252;28;20047;-73
2024/01/21 09:19:54;;;;;;;4.93;1.85;;;9.00;99.90;;;;;;5062878;28;20041;-73
2024/01/21 09:22:20;;;;;;;21.67;3.90;;;9.10;99.90;;;;;;5043421;28;20028;-72
2024/01/21 09:24:47;;;;;;;17.92;2.80;;;9.10;99.90;;;;;;5061974;28;20484;-72
2024/01/21 09:27:13;;;;;;;10.02;2.97;;;9.10;99.90;;;;;;5048518;28;20112;-72
2024/01/21 09:29:39;;;;;;;20.52;2.47;;;9.20;99.90;;;;;;5065811;28;20043;-72
2024/01/21 09:32:05;;;;;;;6.97;2.70;;;9.20;99.90;;;;;;5046431;28;20388;-73
2024/01/21 09:34:30;;;;;;;16.02;5.18;;;9.20;99.90;;;;;;5065924;28;20547;-72
2024/01/21 09:36:56;;;;;;;11.32;1.83;;;9.30;99.90;;;;;;5048444;28;20040;-72
2024/01/21 09:39:22;;;;;;;21.23;4.72;;;9.30;99.90;;;;;;5056148;28;20032;-73
2024/01/21 09:41:49;;;;;;;17.38;3.67;;;9.40;99.90;;;;;;5049211;28;20390;-73
2024/01/21 09:44:18;;;;;;;9.02;2.10;;;9.30;99.90;;;;;;5063895;28;20036;-72
2024/01/21 09:46:44;;;;;;;10.65;2.03;;;9.30;99.90;;;;;;5049244;28;20052;-75
2024/01/21 09:49:11;;;;;;;16.05;3.03;;;9.30;99.90;;;;;;5063379;28;20039;-73
2024/01/21 09:51:41;;;;;;;12.00;2.80;;;9.30;99.90;;;;;;5040785;28;20048;-72
2024/01/21 09:54:06;;;;;;;;;;;9.40;99.90;;;;;;5060809;28;20484;-70
2024/01/21 09:56:34;;;;;;;14.15;2.75;;;9.30;99.90;;;;;;5042983;28;19924;-72
2024/01/21 09:59:03;;;;;;;29.05;2.95;;;9.30;99.90;;;;;;5058146;28;20115;-73
2024/01/21 10:01:32;;;;;;;35.20;4.82;;;9.30;99.90;;;;;;5048525;28;20371;-72
2024/01/21 10:03:57;;;;;;;11.20;2.42;;;9.40;99.90;;;;;;5050713;28;20369;-71
2024/01/21 10:06:25;;;;;;;17.55;2.50;;;9.40;99.90;;;;;;5059378;28;20040;-71
2024/01/21 10:08:50;;;;;;;24.50;4.82;;;9.50;99.90;;;;;;5045941;28;20047;-72
2024/01/21 10:11:16;;;;;;;9.57;2.67;;;9.50;99.90;;;;;;5063802;28;20036;-72
2024/01/21 10:13:44;;;;;;;20.38;2.75;;;9.60;99.90;;;;;;5043024;28;20483;-72
2024/01/21 10:16:10;;;;;;;16.13;2.90;;;9.50;99.90;;;;;;5057296;28;20036;-71
2024/01/21 10:18:36;;;;;;;22.50;2.63;;;9.50;99.90;;;;;;5034792;28;20032;-72
2024/01/21 10:21:04;;;;;;;16.50;2.75;;;9.50;99.90;;;;;;5060855;28;20517;-73
2024/01/21 10:23:30;;;;;;;9.45;1.90;;;9.60;99.90;;;;;;5044802;28;20032;-72
2024/01/21 10:25:56;;;;;;;11.82;2.47;;;9.60;99.90;;;;;;5059338;28;20029;-73
2024/01/21 10:28:22;;;;;;;20.83;3.13;;;9.70;99.90;;;;;;5047669;28;20032;-73
2024/01/21 10:30:48;;;;;;;18.05;2.92;;;9.70;99.90;;;;;;5060306;28;20032;-72
2024/01/21 10:33:14;;;;;;;13.98;2.30;;;9.70;99.90;;;;;;5044436;28;20044;-73
2024/01/21 10:35:41;;;;;;;13.35;2.40;;;9.80;99.90;;;;;;5060098;28;20035;-72
2024/01/21 10:38:11;;;;;;;10.10;2.20;;;9.80;99.90;;;;;;5038272;28;20731;-71
2024/01/21 10:40:44;;;;;;;6.80;1.55;;;9.80;99.90;;;;;;5057882;28;20621;-73
2024/01/21 10:43:14;;;;;;;14.23;2.38;;;9.80;99.90;;;;;;5053378;28;20036;-71
2024/01/21 10:45:48;;;;;;;30.50;4.57;;;10.00;99.90;;;;;;5047429;28;20052;-71
2024/01/21 10:48:15;;;;;;;15.82;1.88;;;10.00;99.90;;;;;;5059523;28;20155;-74
2024/01/21 10:50:43;;;;;;;12.57;1.83;;;10.10;99.90;;;;;;5060174;28;20028;-74
2024/01/21 10:53:11;;;;;;;23.13;3.53;;;10.00;99.90;;;;;;5058004;28;20036;-73
2024/01/21 10:55:39;;;;;;;24.60;1.92;;;10.00;99.90;;;;;;5048363;28;20032;-71
2024/01/21 10:58:06;;;;;;;18.10;2.80;;;10.00;99.90;;;;;;5064595;28;20032;-73
2024/01/21 11:00:32;;;;;;;21.42;2.88;;;10.00;99.90;;;;;;5042502;28;20151;-71
2024/01/21 11:03:23;;;;;;;32.30;2.92;;;10.10;99.90;;;;;;5067900;28;21341;-72
2024/01/21 11:05:51;;;;;;;22.17;3.03;;;;;;;;;;5045209;28;20036;-71
2024/01/21 11:08:21;;;;;;;14.20;2.45;;;10.20;99.90;;;;;;5061269;28;20456;-71
2024/01/21 11:10:50;;;;;;;14.57;1.65;;;10.20;99.90;;;;;;5048079;28;20122;-71
2024/01/21 11:13:41;;;;;;;16.17;3.10;;;10.30;99.90;;;;;;5058232;28;20040;-72
2024/01/21 11:16:11;;;;;;;15.25;4.20;;;10.20;99.90;;;;;;5047210;28;20117;-72
2024/01/21 11:18:37;;;;;;;13.00;1.73;;;10.20;99.90;;;;;;5057725;28;20032;-72
2024/01/21 11:21:02;;;;;;;7.78;1.83;;;10.10;99.90;;;;;;5047081;28;20023;-73
2024/01/21 11:23:28;;;;;;;10.82;2.58;;;10.10;99.90;;;;;;5060874;28;20056;-72
2024/01/21 11:25:54;;;;;;;26.25;2.78;;;10.10;99.90;;;;;;5044708;28;20423;-72
2024/01/21 11:28:28;;;;;;;26.25;2.50;;;10.10;99.90;;;;;;5064496;28;20111;-72
2024/01/21 11:31:02;;;;;;;8.88;1.67;;;10.20;99.90;;;;;;5044899;28;20033;-71
2024/01/21 11:33:29;;;;;;;19.92;2.00;;;10.10;99.90;;;;;;5054914;28;20488;-73
2024/01/21 11:35:58;;;;;;;11.98;2.22;;;10.10;99.90;;;;;;5049838;28;20483;-72
2024/01/21 11:38:23;;;;;;;22.67;2.60;;;10.00;99.90;;;;;;5056099;28;20036;-72
2024/01/21 11:41:02;;;;;;;9.77;2.65;;;10.00;99.90;;;;;;5047244;28;20376;-72
2024/01/21 11:43:28;;;;;;;25.83;2.95;;;10.00;99.90;;;;;;5063209;28;20035;-71
2024/01/21 11:45:55;;;;;;;13.93;2.67;;;10.00;99.90;;;;;;5044076;28;20036;-73
2024/01/21 11:48:27;;;;;;;28.75;3.58;;;9.90;99.90;;;;;;5059253;28;21030;-72
2024/01/21 11:50:53;;;;;;;9.05;2.78;;;9.90;99.90;;;;;;5050035;28;20047;-73
2024/01/21 11:53:18;;;;;;;9.85;1.90;;;9.80;99.90;;;;;;5050926;28;20716;-71
2024/01/21 11:55:46;;;;;;;12.80;2.47;;;9.80;99.90;;;;;;5054279;28;20583;-71
2024/01/21 11:58:12;;;;;;;17.98;3.03;;;9.80;99.90;;;;;;5065052;28;20410;-72
2024/01/21 12:00:38;;;;;;;17.63;1.83;;;9.70;99.90;;;;;;5056121;28;20394;-71
2024/01/21 12:03:04;;;;;;;9.10;1.67;;;9.70;99.90;;;;;;5057722;28;20029;-72
2024/01/21 12:05:30;;;;;;;13.75;2.75;;;9.80;99.90;;;;;;5054035;28;20035;-73
2024/01/21 12:07:58;;;;;;;5.72;1.85;;;;;;;;;;5052463;28;20050;-71
2024/01/21 12:10:26;;;;;;;26.97;3.00;;;10.00;99.90;;;;;;5060691;28;20043;-71
2024/01/21 12:12:52;;;;;;;24.65;4.68;;;10.10;99.90;;;;;;5045163;28;20341;-71
2024/01/21 12:15:18;;;;;;;22.02;2.35;;;10.10;99.90;;;;;;5066849;28;20716;-72
2024/01/21 12:17:53;;;;;;;20.58;3.35;;;10.00;99.90;;;;;;5049475;28;20036;-72
2024/01/21 12:20:19;;;;;;;15.43;3.72;;;10.10;99.90;;;;;;5058309;28;20029;-72
2024/01/21 12:22:45;;;;;;;10.15;2.17;;;10.10;99.90;;;;;;5054517;28;20399;-73
2024/01/21 12:25:11;;;;;;;24.20;4.68;;;10.10;99.90;;;;;;5055728;28;20070;-71
2024/01/21 12:27:43;;;;;;;17.58;3.60;;;10.00;99.90;;;;;;5045242;28;20167;-72
2024/01/21 12:30:13;;;;;;;23.27;3.00;;;10.00;99.90;;;;;;5065033;28;20035;-72
2024/01/21 12:32:40;;;;;;;27.10;3.55;;;10.00;99.90;;;;;;5050174;28;20115;-72
2024/01/21 12:35:07;;;;;;;15.90;2.97;;;10.30;99.90;;;;;;5066061;28;20123;-71
2024/01/21 12:37:33;;;;;;;21.67;3.33;;;10.40;99.90;;;;;;5056354;28;20056;-71
2024/01/21 12:40:00;;;;;;;10.55;2.10;;;10.40;99.90;;;;;;5058224;28;20547;-72
2024/01/21 12:42:26;;;;;;;29.65;3.85;;;10.40;99.90;;;;;;5038981;28;20904;-71
2024/01/21 12:44:52;;;;;;;29.63;3.05;;;10.50;99.90;;;;;;5065505;28;20760;-72
2024/01/21 12:47:20;;;;;;;9.45;2.30;;;10.40;99.90;;;;;;5052508;28;20060;-71
2024/01/21 12:49:45;;;;;;;16.70;4.07;;;10.40;99.90;;;;;;5070054;28;20052;-71
2024/01/21 12:52:11;;;;;;;12.93;2.38;;;10.40;99.90;;;;;;5068593;28;20113;-72
2024/01/21 12:54:37;;;;;;;26.58;3.60;;;10.30;99.90;;;;;;5050781;28;20043;-72
2024/01/21 12:57:03;;;;;;;15.57;2.38;;;10.10;99.90;;;;;;5066887;28;20059;-71
2024/01/21 12:59:30;;;;;;;10.60;3.00;;;10.10;99.90;;;;;;5053758;28;20111;-71